Springfield, MO (65804)

12:11 PM CST on December 27, 2014 (GMT -0600)
Southeast Springfield | Change Station
CLOSE
Current Station
Personal Weather Station
Location: Springfield, MO
Elevation: 1316 ft
Nearby Weather Stations
Active Advisory: Special Statement Active Notice: Public Information Statement

Elev 1316 ft 37.16 °N, 93.25 °W | Updated 54 minutes ago

Overcast
Overcast
34.7 °F
Feels Like 35 °F
N
0.0
Wind Variable Wind from SSE

Today
High -- | Low -- °F
--% Chance of Precip.
Yesterday
High -- | Low -- °F
Precip. -- in
7:25 AM 5:02 PM
Waxing Crescent, 38% visible
Pressure 30.21 in
Visibility 10.0 miles
Clouds Overcast 500 ft
Windchill 35 °F
Dew Point 29 °F
Humidity 78%
Rainfall 0.05 in
Snow Depth Not available.
UV 1 out of 12
Pollen 2.80 out of 12
Air Quality Not available.
Flu Activity Not available.
METAR KSGF 271752Z 32006KT 10SM OVC005 01/M01 A3019 RMK AO2 UPB32E36SNE32 CIG 004V009 SLP230 P0001 60006 T00111006 10039 20006 58011

More Conditions Fewer Conditions

Pressure 30.21 in
Visibility 10.0 miles
Clouds Overcast 500 ft
Windchill 35 °F
Dew Point 29 °F
Humidity 78%
Rainfall 0.05 in
Snow Depth Not available.
UV 1 out of 12
Pollen 2.80 out of 12
Air Quality Not available.
Flu Activity Not available.
METAR KSGF 271752Z 32006KT 10SM OVC005 01/M01 A3019 RMK AO2 UPB32E36SNE32 CIG 004V009 SLP230 P0001 60006 T00111006 10039 20006 58011

More Conditions Fewer Conditions

10-Day Weather Forecast

Almanac

Astronomy

Dec. 27, 2014 Rise Set
Actual Time
Civil Twilight
Nautical Twilight
Astronomical Twilight
Moon
Length of Visible Light
Length of Day
Tomorrow will be .
, % of the Moon is Illuminated

Today's Extremes

State Highs State Lows

Community

WunderPhotos

Upload Photos

1,780,981 photos uploaded!

WunderBlogs® & News

Nearby

Air Quality

  Air Quality AQ Index Pollutant
Not available.

Snow Depth

Station Depth Elevation

Earthquake Activity

City Distance Mag. Time & Date
Minimum magnitude displayed is 2.5.

Coastal Water Temperatures

Place Temperature

Nearby Weather Stations